Time;durP1;ratioP1;P1;durP2;ratioP2;P2;SDS_P1;SDS_P2;PMS_P1;PMS_P2;Temp;Humidity;BMP_temperature;BMP_pressure;BME280_temperature;BME280_humidity;BME280_pressure;Samples;Min_cycle;Max_cycle;Signal;HPM_P1;HPM_P2
2023/07/21 00:01:08;;;;;;;4.60;2.90;;;18.70;99.90;;;;;;4955542;28;20447;-85
2023/07/21 00:03:35;;;;;;;3.58;2.42;;;17.90;99.90;;;;;;4973152;28;20458;-85
2023/07/21 00:06:03;;;;;;;2.80;2.60;;;17.90;99.90;;;;;;4955804;28;20480;-85
2023/07/21 00:08:29;;;;;;;3.60;2.80;;;17.90;99.90;;;;;;4955714;28;20983;-85
2023/07/21 00:10:57;;;;;;;3.83;2.80;;;17.90;99.90;;;;;;4972835;28;20392;-85
2023/07/21 00:13:23;;;;;;;3.20;2.50;;;17.80;99.90;;;;;;4972250;28;20431;-85
2023/07/21 00:15:49;;;;;;;2.50;2.30;;;17.80;99.90;;;;;;4972853;28;20392;-85
2023/07/21 00:18:15;;;;;;;3.67;3.15;;;17.90;99.90;;;;;;4955575;28;20460;-85
2023/07/21 00:20:41;;;;;;;3.00;2.27;;;18.10;99.90;;;;;;4954933;28;20389;-86
2023/07/21 00:23:06;;;;;;;2.90;2.60;;;17.80;99.90;;;;;;4955087;28;20426;-85
2023/07/21 00:25:32;;;;;;;3.17;2.60;;;18.20;99.90;;;;;;4972641;28;20447;-85
2023/07/21 00:27:58;;;;;;;2.72;2.42;;;18.50;99.90;;;;;;4972801;28;20388;-85
2023/07/21 00:30:23;;;;;;;3.40;2.87;;;17.90;99.90;;;;;;4972716;28;20389;-85
2023/07/21 00:32:49;;;;;;;3.30;2.80;;;18.70;99.90;;;;;;4972975;28;20400;-85
2023/07/21 00:35:15;;;;;;;2.97;2.60;;;20.00;99.90;;;;;;4956224;28;20432;-85
2023/07/21 00:37:41;;;;;;;3.17;2.50;;;18.20;99.90;;;;;;4964777;28;20392;-86
2023/07/21 00:40:18;;;;;;;2.47;2.25;;;19.60;99.90;;;;;;4997663;28;20444;-85
2023/07/21 00:42:44;;;;;;;3.38;2.30;;;18.10;99.90;;;;;;4997523;28;20412;-86
2023/07/21 00:45:13;;;;;;;2.40;2.20;;;19.70;99.90;;;;;;4980764;28;20416;-86
2023/07/21 00:47:39;;;;;;;2.60;2.40;;;18.10;99.90;;;;;;4980748;28;20396;-86
2023/07/21 00:50:06;;;;;;;2.77;2.40;;;18.10;99.90;;;;;;4997618;28;20387;-87
2023/07/21 00:52:31;;;;;;;3.40;2.72;;;18.10;99.90;;;;;;5024450;23;20444;-81
2023/07/21 00:54:57;;;;;;;3.13;2.40;;;18.10;99.90;;;;;;5015607;28;20373;-80
2023/07/21 00:57:24;;;;;;;4.13;2.45;;;18.00;99.90;;;;;;5014218;28;20403;-81
2023/07/21 00:59:50;;;;;;;3.35;2.40;;;17.90;99.90;;;;;;5013585;28;20470;-81
2023/07/21 01:02:17;;;;;;;4.00;2.33;;;17.80;99.90;;;;;;5012043;28;20393;-81
2023/07/21 01:04:44;;;;;;;2.78;2.40;;;17.80;99.90;;;;;;5013130;28;20451;-81
2023/07/21 01:07:10;;;;;;;2.90;2.10;;;17.80;99.90;;;;;;5013436;28;20471;-81
2023/07/21 01:09:37;;;;;;;3.17;2.38;;;17.80;99.90;;;;;;5012682;28;20432;-81
2023/07/21 01:12:05;;;;;;;3.50;2.70;;;17.60;99.90;;;;;;5012990;28;20389;-81
2023/07/21 01:14:30;;;;;;;2.80;2.45;;;17.60;99.90;;;;;;5014384;28;20426;-81
2023/07/21 01:16:58;;;;;;;2.73;2.47;;;17.60;99.90;;;;;;5014182;28;20393;-81
2023/07/21 01:19:26;;;;;;;2.50;2.15;;;17.60;99.90;;;;;;5010858;28;20511;-81
2023/07/21 01:21:59;;;;;;;4.10;2.75;;;17.60;99.90;;;;;;5013133;28;20403;-81
2023/07/21 01:24:44;;;;;;;3.00;2.50;;;17.30;99.90;;;;;;5012833;28;20891;-81
2023/07/21 01:27:11;;;;;;;2.88;2.50;;;17.30;99.90;;;;;;5011748;28;20765;-81
2023/07/21 01:29:40;;;;;;;3.22;2.35;;;17.30;99.90;;;;;;5013334;28;20405;-81
2023/07/21 01:32:09;;;;;;;3.83;2.55;;;17.30;99.90;;;;;;5010552;28;20393;-81
2023/07/21 01:34:36;;;;;;;3.08;2.60;;;17.30;99.90;;;;;;5011109;28;20396;-81
2023/07/21 01:37:02;;;;;;;3.25;2.80;;;17.30;99.90;;;;;;5012877;28;20545;-81
2023/07/21 01:39:30;;;;;;;3.30;3.00;;;17.10;99.90;;;;;;5013278;28;20447;-81
2023/07/21 01:41:56;;;;;;;2.50;2.30;;;17.10;99.90;;;;;;5012162;28;20412;-81
2023/07/21 01:44:22;;;;;;;2.80;2.60;;;17.00;99.90;;;;;;5012474;28;20403;-81
2023/07/21 01:46:49;;;;;;;3.00;2.50;;;17.00;99.90;;;;;;5012907;28;20463;-81
2023/07/21 01:49:15;;;;;;;2.90;2.50;;;17.00;99.90;;;;;;5011888;28;20396;-81
2023/07/21 01:51:42;;;;;;;4.37;2.77;;;17.00;99.90;;;;;;5011573;28;20442;-81
2023/07/21 01:54:31;;;;;;;4.10;2.60;;;17.00;99.90;;;;;;5013928;28;20423;-81
2023/07/21 01:57:03;;;;;;;2.55;2.35;;;17.00;99.90;;;;;;5013242;28;20381;-81
2023/07/21 01:59:29;;;;;;;2.60;2.40;;;17.00;99.90;;;;;;5013873;28;20420;-81
2023/07/21 02:01:56;;;;;;;2.85;2.60;;;17.00;99.90;;;;;;5012826;28;20389;-81
2023/07/21 02:04:23;;;;;;;2.33;2.10;;;16.90;99.90;;;;;;5012833;28;20439;-81
2023/07/21 02:06:49;;;;;;;2.75;2.42;;;17.00;99.90;;;;;;5014285;28;20395;-81
2023/07/21 02:09:15;;;;;;;3.70;2.67;;;17.00;99.90;;;;;;5011606;28;20539;-81
2023/07/21 02:11:42;;;;;;;4.10;2.35;;;17.00;99.90;;;;;;5010828;28;20420;-80
2023/07/21 02:14:07;;;;;;;2.70;2.50;;;17.10;99.90;;;;;;5028649;28;20388;-81
2023/07/21 02:16:33;;;;;;;3.15;2.42;;;17.10;99.90;;;;;;5013195;28;20476;-80
2023/07/21 02:18:58;;;;;;;3.70;2.20;;;17.20;99.90;;;;;;5013592;28;20726;-81
2023/07/21 02:21:24;;;;;;;2.67;2.40;;;17.10;99.90;;;;;;5012859;28;20492;-81
2023/07/21 02:23:50;;;;;;;2.60;2.40;;;17.00;99.90;;;;;;5012770;28;20496;-81
2023/07/21 02:26:15;;;;;;;2.50;2.20;;;16.90;99.90;;;;;;5028098;28;20392;-81
2023/07/21 02:28:41;;;;;;;2.70;2.10;;;17.00;99.90;;;;;;5012758;28;20758;-80
2023/07/21 02:31:09;;;;;;;3.53;2.08;;;16.90;99.90;;;;;;5011058;28;20385;-81
2023/07/21 02:33:35;;;;;;;2.45;2.20;;;16.90;99.90;;;;;;5027857;28;20516;-81
2023/07/21 02:36:01;;;;;;;2.50;2.10;;;16.90;99.90;;;;;;5011245;28;20393;-81
2023/07/21 02:38:28;;;;;;;2.70;2.50;;;17.00;99.90;;;;;;5014680;28;20389;-81
2023/07/21 02:40:53;;;;;;;3.78;2.40;;;16.90;99.90;;;;;;5015087;28;20806;-81
2023/07/21 02:43:19;;;;;;;2.63;2.42;;;16.80;99.90;;;;;;5016804;28;20495;-80
2023/07/21 02:45:52;;;;;;;3.00;2.60;;;16.80;99.90;;;;;;5015636;28;20396;-81
2023/07/21 02:48:18;;;;;;;2.53;2.33;;;16.70;99.90;;;;;;5016943;28;20385;-81
2023/07/21 02:50:48;;;;;;;2.53;2.20;;;16.70;99.90;;;;;;5016043;28;20385;-80
2023/07/21 02:53:13;;;;;;;2.90;2.40;;;16.70;99.90;;;;;;5014854;28;20397;-81
2023/07/21 02:55:39;;;;;;;2.33;2.13;;;16.60;99.90;;;;;;5016510;28;20438;-81
2023/07/21 02:58:06;;;;;;;2.60;2.30;;;16.70;99.90;;;;;;5015169;28;20468;-81
2023/07/21 03:00:32;;;;;;;3.50;2.60;;;16.70;99.90;;;;;;5015240;28;20492;-81
2023/07/21 03:02:58;;;;;;;3.00;2.30;;;16.70;99.90;;;;;;5015049;28;20401;-81
2023/07/21 03:05:24;;;;;;;3.53;2.20;;;16.60;99.90;;;;;;5022859;28;20396;-81
2023/07/21 03:07:49;;;;;;;2.20;2.00;;;16.70;99.90;;;;;;5027530;28;20393;-81
2023/07/21 03:10:16;;;;;;;3.72;2.50;;;16.50;99.90;;;;;;5025979;28;20833;-81
2023/07/21 03:12:42;;;;;;;2.88;2.45;;;16.50;99.90;;;;;;5026687;28;20389;-81
2023/07/21 03:15:08;;;;;;;2.90;2.30;;;16.40;99.90;;;;;;5019542;28;20901;-82
2023/07/21 03:17:34;;;;;;;3.38;2.20;;;16.30;99.90;;;;;;5032496;28;20432;-81
2023/07/21 03:19:59;;;;;;;3.20;2.10;;;16.30;99.90;;;;;;5015898;28;20385;-83
2023/07/21 03:22:25;;;;;;;2.40;2.20;;;16.50;99.90;;;;;;5012026;28;20950;-80
2023/07/21 03:24:50;;;;;;;2.58;2.35;;;16.40;99.90;;;;;;5015039;28;20396;-80
2023/07/21 03:27:16;;;;;;;2.37;2.17;;;16.30;99.90;;;;;;5014734;28;20424;-80
2023/07/21 03:29:42;;;;;;;3.43;2.40;;;16.10;99.90;;;;;;5015403;28;20450;-81
2023/07/21 03:32:08;;;;;;;3.47;2.22;;;16.00;99.90;;;;;;5013105;28;20423;-80
2023/07/21 03:34:35;;;;;;;2.90;2.00;;;16.00;99.90;;;;;;5015493;28;20725;-81
2023/07/21 03:37:08;;;;;;;2.50;2.30;;;15.90;99.90;;;;;;5014801;28;20396;-80
2023/07/21 03:39:33;;;;;;;2.80;2.50;;;15.90;99.90;;;;;;5014687;28;20922;-79
2023/07/21 03:41:59;;;;;;;3.00;2.50;;;15.90;99.90;;;;;;5016436;28;20388;-79
2023/07/21 03:44:26;;;;;;;2.90;2.40;;;15.80;99.90;;;;;;5014851;28;21481;-80
2023/07/21 03:46:51;;;;;;;2.70;2.50;;;16.00;99.90;;;;;;5015708;28;20389;-81
2023/07/21 03:49:17;;;;;;;3.13;2.40;;;16.00;99.90;;;;;;5015276;28;20381;-80
2023/07/21 03:51:43;;;;;;;4.23;2.40;;;16.00;99.90;;;;;;5013835;28;20412;-81
2023/07/21 03:54:08;;;;;;;3.13;2.20;;;16.20;99.90;;;;;;5015701;28;20389;-80
2023/07/21 03:56:34;;;;;;;3.65;2.60;;;16.10;99.90;;;;;;5016547;28;20396;-80
2023/07/21 03:59:00;;;;;;;2.50;2.30;;;16.20;99.90;;;;;;5023530;28;20472;-80
2023/07/21 04:01:26;;;;;;;2.50;2.30;;;16.30;99.90;;;;;;5017288;28;20919;-81
2023/07/21 04:03:52;;;;;;;2.70;2.42;;;16.30;99.90;;;;;;5017560;28;20888;-80
2023/07/21 04:06:23;;;;;;;2.97;2.30;;;16.20;99.90;;;;;;5014719;28;20412;-79
2023/07/21 04:08:51;;;;;;;2.33;2.13;;;16.30;99.90;;;;;;5014154;28;20388;-79
2023/07/21 04:11:17;;;;;;;2.45;2.25;;;16.20;99.90;;;;;;5013855;28;20399;-80
2023/07/21 04:13:42;;;;;;;4.18;2.30;;;16.20;99.90;;;;;;5014192;28;20476;-81
2023/07/21 04:16:08;;;;;;;2.60;2.40;;;16.10;99.90;;;;;;5012914;28;20396;-81
2023/07/21 04:18:33;;;;;;;2.97;2.17;;;16.00;99.90;;;;;;5013530;28;20912;-79
2023/07/21 04:20:59;;;;;;;2.90;2.60;;;16.10;99.90;;;;;;5029198;28;20399;-80
2023/07/21 04:23:24;;;;;;;3.70;2.50;;;16.00;99.90;;;;;;5014211;28;20409;-81
2023/07/21 04:25:50;;;;;;;3.20;2.10;;;16.10;99.90;;;;;;5029386;28;20393;-81
2023/07/21 04:28:15;;;;;;;2.63;2.42;;;16.10;99.90;;;;;;5014576;28;20465;-81
2023/07/21 04:30:41;;;;;;;2.40;2.20;;;16.00;99.90;;;;;;5012301;28;20430;-79
2023/07/21 04:33:07;;;;;;;2.90;2.60;;;15.90;99.90;;;;;;5028989;28;20393;-81
2023/07/21 04:35:32;;;;;;;2.97;2.58;;;15.90;99.90;;;;;;5014139;28;20514;-81
2023/07/21 04:37:59;;;;;;;2.40;2.20;;;15.90;99.90;;;;;;5013818;28;20531;-80
2023/07/21 04:40:25;;;;;;;3.00;2.70;;;15.90;99.90;;;;;;5013958;28;20479;-79
2023/07/21 04:42:50;;;;;;;2.70;2.30;;;15.70;99.90;;;;;;5013581;28;20916;-79
2023/07/21 04:45:16;;;;;;;2.50;2.30;;;15.90;99.90;;;;;;5013624;28;21102;-81
2023/07/21 04:47:42;;;;;;;7.05;2.28;;;15.70;99.90;;;;;;5013572;28;20384;-80
2023/07/21 04:50:08;;;;;;;3.07;2.30;;;15.70;99.90;;;;;;5013956;28;20906;-81
2023/07/21 04:52:36;;;;;;;2.90;2.40;;;15.60;99.90;;;;;;5011810;28;20401;-79
2023/07/21 04:55:05;;;;;;;3.77;2.47;;;15.80;99.90;;;;;;5014195;28;20465;-81
2023/07/21 04:57:32;;;;;;;3.40;2.30;;;15.80;99.90;;;;;;5015745;28;20951;-80
2023/07/21 04:59:59;;;;;;;2.67;2.47;;;15.90;99.90;;;;;;5016919;28;20392;-81
2023/07/21 05:02:26;;;;;;;3.58;2.60;;;16.00;99.90;;;;;;5019177;28;20911;-83
2023/07/21 05:04:53;;;;;;;2.85;2.65;;;16.10;99.90;;;;;;5018684;28;20889;-82
2023/07/21 05:07:18;;;;;;;2.80;2.60;;;16.10;99.90;;;;;;5018867;28;20405;-84
2023/07/21 05:09:44;;;;;;;2.93;2.40;;;16.20;99.90;;;;;;5037221;28;20379;-83
2023/07/21 05:12:09;;;;;;;2.50;2.30;;;16.30;99.90;;;;;;5038302;28;20756;-84
2023/07/21 05:14:36;;;;;;;4.65;2.70;;;16.20;99.90;;;;;;5040410;28;20394;-84
2023/07/21 05:17:02;;;;;;;3.67;2.60;;;16.30;99.90;;;;;;5036371;28;20419;-83
2023/07/21 05:19:27;;;;;;;2.63;2.42;;;16.90;99.90;;;;;;5036088;28;20825;-84
2023/07/21 05:21:53;;;;;;;2.78;2.53;;;16.60;99.90;;;;;;5035819;28;20434;-82
2023/07/21 05:24:18;;;;;;;2.90;2.60;;;16.60;99.90;;;;;;5039381;28;20407;-82
2023/07/21 05:26:43;;;;;;;3.50;2.50;;;16.80;99.90;;;;;;5037292;28;20402;-83
2023/07/21 05:29:09;;;;;;;3.50;2.53;;;16.80;99.90;;;;;;5050431;28;20383;-82
2023/07/21 05:31:35;;;;;;;4.20;2.30;;;16.90;99.90;;;;;;5035789;28;20445;-81
2023/07/21 05:34:01;;;;;;;7.90;2.60;;;16.90;99.90;;;;;;5024387;28;20388;-82
2023/07/21 05:36:26;;;;;;;2.80;2.40;;;17.10;99.90;;;;;;5016787;28;20453;-82
2023/07/21 05:38:52;;;;;;;2.60;2.38;;;17.30;99.90;;;;;;5022739;28;20412;-83
2023/07/21 05:41:18;;;;;;;2.50;2.10;;;17.40;99.90;;;;;;5022351;28;20385;-85
2023/07/21 05:43:44;;;;;;;3.95;2.30;;;17.30;99.90;;;;;;5017587;28;20440;-85
2023/07/21 05:46:10;;;;;;;4.15;2.30;;;17.30;99.90;;;;;;5017314;28;20447;-84
2023/07/21 05:48:36;;;;;;;2.90;2.10;;;17.40;99.90;;;;;;5017051;28;20397;-83
2023/07/21 05:51:02;;;;;;;3.65;2.60;;;17.30;99.90;;;;;;5018552;28;20396;-83
2023/07/21 05:53:27;;;;;;;3.00;2.10;;;17.30;99.90;;;;;;5021121;28;20433;-84
2023/07/21 05:55:53;;;;;;;3.23;2.40;;;17.40;99.90;;;;;;5017526;28;20420;-82
2023/07/21 05:58:18;;;;;;;3.83;2.28;;;17.50;99.90;;;;;;5016687;28;20388;-83
2023/07/21 06:00:45;;;;;;;2.73;2.30;;;17.50;99.90;;;;;;5014483;28;20461;-84
2023/07/21 06:03:10;;;;;;;3.83;2.10;;;17.50;99.90;;;;;;5019320;28;20412;-82
2023/07/21 06:05:36;;;;;;;3.40;2.60;;;17.60;99.90;;;;;;5015514;28;20976;-82
2023/07/21 06:08:04;;;;;;;2.53;2.27;;;17.60;99.90;;;;;;5022273;28;20890;-82
2023/07/21 06:10:30;;;;;;;4.10;2.35;;;17.70;99.90;;;;;;5034014;28;20390;-81
2023/07/21 06:12:56;;;;;;;2.45;2.25;;;17.90;99.90;;;;;;5020414;28;20397;-81
2023/07/21 06:15:21;;;;;;;2.63;2.35;;;18.10;99.90;;;;;;5025213;28;20498;-82
2023/07/21 06:17:47;;;;;;;3.05;2.40;;;18.20;99.90;;;;;;5029792;28;20396;-81
2023/07/21 06:20:13;;;;;;;4.40;2.73;;;18.20;99.90;;;;;;5023977;28;20424;-84
2023/07/21 06:22:39;;;;;;;3.27;2.07;;;18.20;99.90;;;;;;5024792;28;20388;-84
2023/07/21 06:25:04;;;;;;;4.33;2.40;;;18.10;99.90;;;;;;5028137;28;20388;-84
2023/07/21 06:27:30;;;;;;;3.35;2.30;;;18.20;99.90;;;;;;5028441;28;20388;-85
2023/07/21 06:29:56;;;;;;;2.30;2.10;;;18.40;99.90;;;;;;5027791;28;20423;-84
2023/07/21 06:32:23;;;;;;;2.50;2.30;;;18.50;99.90;;;;;;5022516;28;20384;-83
2023/07/21 06:34:49;;;;;;;2.45;2.25;;;18.70;99.90;;;;;;5023262;28;20424;-83
2023/07/21 06:37:14;;;;;;;3.40;2.22;;;18.70;99.90;;;;;;5023607;28;20446;-84
2023/07/21 06:39:40;;;;;;;3.00;2.10;;;18.80;99.90;;;;;;5023698;28;20395;-85
2023/07/21 06:42:07;;;;;;;2.47;2.28;;;18.90;99.90;;;;;;5024680;28;20408;-83
2023/07/21 06:44:34;;;;;;;2.95;2.03;;;19.00;99.90;;;;;;5023920;28;20400;-86
2023/07/21 06:47:00;;;;;;;2.90;2.60;;;19.10;99.90;;;;;;5023525;28;20380;-84
2023/07/21 06:49:25;;;;;;;3.53;2.10;;;19.00;99.90;;;;;;5023507;28;20392;-85
2023/07/21 06:54:19;;;;;;;4.75;2.45;;;19.10;99.90;;;;;;4972080;28;20447;-83
2023/07/21 06:56:44;;;;;;;1.70;1.60;;;19.10;99.90;;;;;;4978106;28;20389;-83
2023/07/21 06:59:10;;;;;;;3.88;2.38;;;19.30;99.90;;;;;;4976402;28;20384;-83
2023/07/21 07:01:35;;;;;;;3.27;2.30;;;19.20;99.90;;;;;;4976127;28;20890;-83
2023/07/21 07:04:01;;;;;;;3.60;2.00;;;19.30;99.90;;;;;;4958264;28;20408;-83
2023/07/21 07:06:29;;;;;;;3.53;2.13;;;19.40;99.90;;;;;;4958619;28;20396;-83
2023/07/21 07:08:55;;;;;;;3.22;2.08;;;19.30;99.90;;;;;;4962214;28;20441;-82
2023/07/21 07:11:21;;;;;;;2.60;2.20;;;19.30;99.90;;;;;;4956837;28;20386;-83
2023/07/21 07:13:47;;;;;;;4.15;2.25;;;19.40;99.90;;;;;;4939476;29;20397;-83
2023/07/21 07:16:13;;;;;;;3.85;2.67;;;19.50;99.90;;;;;;4938917;29;20398;-86
2023/07/21 07:18:38;;;;;;;2.80;2.13;;;19.70;99.90;;;;;;4957027;28;20389;-85
2023/07/21 07:21:04;;;;;;;2.95;2.25;;;20.60;99.90;;;;;;4934984;29;20927;-87
2023/07/21 07:23:29;;;;;;;3.70;2.40;;;19.80;99.90;;;;;;4952486;28;20406;-86
2023/07/21 07:25:55;;;;;;;2.60;2.10;;;19.80;99.90;;;;;;4938238;29;20477;-86
2023/07/21 07:28:21;;;;;;;2.43;2.23;;;19.70;99.90;;;;;;4940222;29;20386;-86
2023/07/21 07:30:48;;;;;;;7.07;2.60;;;20.10;99.90;;;;;;4939243;29;20416;-85
2023/07/21 07:33:14;;;;;;;2.80;2.10;;;19.90;99.90;;;;;;4934551;29;20471;-86
2023/07/21 07:35:50;;;;;;;4.60;2.33;;;19.70;99.90;;;;;;4936804;29;20406;-85
2023/07/21 07:38:23;;;;;;;2.33;2.13;;;19.90;99.90;;;;;;4920538;29;20451;-85
2023/07/21 07:40:49;;;;;;;3.50;2.70;;;20.60;99.90;;;;;;4949925;29;20388;-86
2023/07/21 07:43:14;;;;;;;3.97;2.10;;;19.80;99.90;;;;;;4943895;28;20433;-88
2023/07/21 07:45:40;;;;;;;2.20;2.00;;;20.20;99.90;;;;;;4960828;28;20411;-87
2023/07/21 07:48:09;;;;;;;3.05;2.30;;;20.10;99.90;;;;;;4960204;28;20443;-86
2023/07/21 07:50:41;;;;;;;3.57;1.97;;;20.20;99.90;;;;;;4941246;29;20410;-86
2023/07/21 07:53:08;;;;;;;2.50;1.90;;;20.40;99.90;;;;;;4922428;29;20414;-86
2023/07/21 07:55:43;;;;;;;3.53;2.00;;;21.30;99.90;;;;;;4936968;29;20396;-86
2023/07/21 07:58:09;;;;;;;2.90;2.10;;;20.60;99.90;;;;;;4919364;29;20415;-88
2023/07/21 08:00:38;;;;;;;3.33;2.08;;;20.70;99.90;;;;;;4919212;29;20400;-86
2023/07/21 08:03:04;;;;;;;2.10;1.90;;;20.60;99.90;;;;;;4919298;29;20419;-86
2023/07/21 08:05:30;;;;;;;3.80;1.88;;;21.20;99.90;;;;;;4922402;29;20435;-84
2023/07/21 08:07:58;;;;;;;2.00;1.90;;;21.10;99.90;;;;;;4927355;29;20806;-86
2023/07/21 08:10:27;;;;;;;2.33;1.90;;;20.80;99.90;;;;;;4938481;29;20537;-86
2023/07/21 08:12:54;;;;;;;3.20;2.00;;;20.80;99.90;;;;;;4940527;29;20409;-86
2023/07/21 08:15:19;;;;;;;3.75;1.70;;;21.10;99.90;;;;;;4957505;28;20397;-85
2023/07/21 08:17:45;;;;;;;4.83;1.90;;;21.20;99.90;;;;;;4939643;29;20898;-86
2023/07/21 08:20:11;;;;;;;2.78;2.00;;;21.20;99.90;;;;;;4962710;28;20397;-84
2023/07/21 08:22:36;;;;;;;3.38;1.75;;;20.90;99.90;;;;;;4963674;29;20393;-84
2023/07/21 08:25:02;;;;;;;2.73;1.87;;;21.40;99.90;;;;;;4944354;29;20401;-85
2023/07/21 08:27:27;;;;;;;3.97;1.80;;;20.90;99.90;;;;;;4944940;29;20489;-85
2023/07/21 08:29:53;;;;;;;2.10;1.90;;;20.90;99.90;;;;;;4944431;29;20390;-85
2023/07/21 08:32:19;;;;;;;2.80;1.90;;;20.90;99.90;;;;;;4941851;29;20394;-84
2023/07/21 08:34:45;;;;;;;3.00;1.80;;;20.20;99.90;;;;;;4929706;29;20455;-84
2023/07/21 08:37:12;;;;;;;2.20;1.80;;;20.80;99.90;;;;;;4927017;29;20403;-84
2023/07/21 08:39:37;;;;;;;1.92;1.70;;;20.80;99.90;;;;;;4922542;29;20410;-83
2023/07/21 08:42:11;;;;;;;2.20;1.90;;;20.80;99.90;;;;;;4943398;29;20408;-84
2023/07/21 08:44:38;;;;;;;2.50;2.00;;;20.80;99.90;;;;;;4923481;29;20415;-84
2023/07/21 08:47:04;;;;;;;4.13;2.00;;;20.80;99.90;;;;;;4942317;29;20392;-83
2023/07/21 08:49:30;;;;;;;4.60;1.90;;;21.40;99.90;;;;;;4944625;29;20398;-85
2023/07/21 08:51:55;;;;;;;2.67;1.70;;;21.20;99.90;;;;;;4959580;28;20394;-84
2023/07/21 08:54:21;;;;;;;3.38;1.90;;;21.10;99.90;;;;;;4943349;28;20423;-85
2023/07/21 08:56:47;;;;;;;1.83;1.73;;;21.40;99.90;;;;;;4932064;29;20431;-86
2023/07/21 08:59:12;;;;;;;1.90;1.70;;;21.40;99.90;;;;;;4922074;29;20392;-85
2023/07/21 09:01:38;;;;;;;3.10;1.70;;;21.40;99.90;;;;;;4923462;29;20399;-85
2023/07/21 09:04:17;;;;;;;3.07;1.80;;;21.00;99.90;;;;;;4919744;29;20422;-85
2023/07/21 09:06:51;;;;;;;2.78;1.85;;;21.60;99.90;;;;;;4918543;29;20431;-85
2023/07/21 09:09:21;;;;;;;4.40;2.13;;;21.80;99.90;;;;;;4939808;29;20463;-84
2023/07/21 09:11:48;;;;;;;2.08;1.88;;;22.30;99.90;;;;;;4975993;28;20390;-84
2023/07/21 09:14:15;;;;;;;2.22;1.80;;;22.30;99.90;;;;;;4961795;29;20394;-85
2023/07/21 09:16:41;;;;;;;3.28;1.95;;;22.30;99.90;;;;;;4961638;28;20449;-85
2023/07/21 09:19:07;;;;;;;2.15;1.80;;;22.40;99.90;;;;;;4958407;29;20386;-85
2023/07/21 09:21:35;;;;;;;1.92;1.50;;;22.20;99.90;;;;;;4958139;28;20480;-85
2023/07/21 09:24:05;;;;;;;3.35;2.10;;;22.20;99.90;;;;;;4960982;28;20402;-84
2023/07/21 09:26:32;;;;;;;2.22;1.80;;;22.20;99.90;;;;;;4943642;29;20405;-84
2023/07/21 09:28:58;;;;;;;2.55;1.95;;;22.30;99.90;;;;;;4946582;29;20396;-85
2023/07/21 09:31:28;;;;;;;2.40;1.90;;;22.30;99.90;;;;;;4961472;29;20837;-84
2023/07/21 09:33:54;;;;;;;4.53;2.00;;;22.40;99.90;;;;;;4932482;29;20396;-86
2023/07/21 09:36:22;;;;;;;2.67;1.73;;;22.50;99.90;;;;;;4922366;29;20428;-86
2023/07/21 09:38:50;;;;;;;4.55;1.90;;;22.60;99.90;;;;;;4921139;29;20817;-86
2023/07/21 09:41:24;;;;;;;3.38;2.10;;;22.50;99.90;;;;;;4918974;29;20463;-84
2023/07/21 09:43:51;;;;;;;4.40;2.00;;;23.00;99.90;;;;;;4918093;29;20919;-85
2023/07/21 09:46:17;;;;;;;4.25;2.00;;;22.70;99.90;;;;;;4922596;29;20908;-85
2023/07/21 09:48:44;;;;;;;2.72;1.67;;;22.60;99.90;;;;;;4918583;29;20400;-86
2023/07/21 09:51:10;;;;;;;7.90;2.50;;;23.80;99.90;;;;;;4934423;29;20391;-86
2023/07/21 09:53:42;;;;;;;2.25;1.60;;;23.40;99.90;;;;;;4917136;29;20415;-86
2023/07/21 09:56:09;;;;;;;1.65;1.40;;;23.00;99.90;;;;;;4921961;29;20407;-85
2023/07/21 09:58:41;;;;;;;4.20;1.60;;;22.80;99.90;;;;;;4936327;29;20400;-86
2023/07/21 10:01:09;;;;;;;3.45;1.70;;;23.20;99.90;;;;;;4934640;29;20771;-86
2023/07/21 10:03:36;;;;;;;3.00;1.70;;;23.00;99.90;;;;;;4918787;29;20415;-85
2023/07/21 10:06:03;;;;;;;2.40;1.70;;;22.50;99.90;;;;;;4937589;29;20821;-86
2023/07/21 10:08:31;;;;;;;3.20;1.55;;;22.60;99.90;;;;;;4952061;29;20386;-85
2023/07/21 10:10:58;;;;;;;4.80;1.80;;;21.10;99.90;;;;;;4959886;29;20798;-83
2023/07/21 10:13:28;;;;;;;2.67;1.90;;;22.70;99.90;;;;;;4957678;29;20426;-87
2023/07/21 10:16:06;;;;;;;2.00;1.80;;;22.60;99.90;;;;;;4942250;29;20405;-86
2023/07/21 10:18:31;;;;;;;3.97;1.60;;;22.50;99.90;;;;;;4944920;29;20436;-85
2023/07/21 10:20:58;;;;;;;2.33;1.70;;;23.00;99.90;;;;;;4963382;29;20398;-85
2023/07/21 10:23:34;;;;;;;2.90;1.70;;;23.10;99.90;;;;;;4957971;29;20417;-86
2023/07/21 10:26:07;;;;;;;2.65;1.80;;;22.60;99.90;;;;;;4942471;29;20405;-85
2023/07/21 10:28:44;;;;;;;1.67;1.50;;;22.70;99.90;;;;;;4946398;29;20402;-86
2023/07/21 10:31:25;;;;;;;2.27;1.80;;;22.60;99.90;;;;;;4941726;29;20824;-86
2023/07/21 10:34:04;;;;;;;2.47;1.60;;;22.70;99.90;;;;;;4933574;29;20395;-85
2023/07/21 10:36:59;;;;;;;1.70;1.30;;;22.70;99.90;;;;;;4920032;29;20458;-85
2023/07/21 10:39:26;;;;;;;3.90;1.52;;;22.50;99.90;;;;;;4940052;29;20403;-85
2023/07/21 10:42:05;;;;;;;1.65;1.30;;;22.50;99.90;;;;;;4948418;29;20395;-86
2023/07/21 10:44:35;;;;;;;2.90;1.92;;;22.40;99.90;;;;;;4942134;29;20487;-86
2023/07/21 10:47:00;;;;;;;2.78;1.63;;;22.30;99.90;;;;;;4918535;29;20931;-86
2023/07/21 10:49:26;;;;;;;3.10;1.90;;;22.70;99.90;;;;;;4918468;29;20407;-85
2023/07/21 10:51:51;;;;;;;1.70;1.60;;;22.30;99.90;;;;;;4918611;29;20411;-87
2023/07/21 10:54:18;;;;;;;1.90;1.60;;;22.40;99.90;;;;;;4921394;29;20468;-85
2023/07/21 10:56:49;;;;;;;1.83;1.57;;;22.50;99.90;;;;;;4937533;28;20412;-88
2023/07/21 10:59:17;;;;;;;2.03;1.63;;;22.30;99.90;;;;;;4921728;29;20407;-86
2023/07/21 11:01:49;;;;;;;3.85;1.55;;;23.50;99.90;;;;;;4938133;29;20402;-87
2023/07/21 11:04:16;;;;;;;1.90;1.48;;;23.00;99.90;;;;;;4920871;29;20450;-86
2023/07/21 11:06:43;;;;;;;1.60;1.40;;;22.70;99.90;;;;;;4920390;29;20396;-86
2023/07/21 11:09:11;;;;;;;3.60;1.60;;;22.80;99.90;;;;;;4952826;29;20758;-87
2023/07/21 11:11:41;;;;;;;1.80;1.60;;;22.60;99.90;;;;;;4938927;29;20386;-86
2023/07/21 11:14:14;;;;;;;2.30;1.45;;;22.40;99.90;;;;;;4956500;29;20735;-86
2023/07/21 11:17:01;;;;;;;1.67;1.50;;;22.50;99.90;;;;;;4939146;29;20402;-87
2023/07/21 11:19:29;;;;;;;3.53;1.50;;;22.70;99.90;;;;;;4939882;29;20894;-87
2023/07/21 11:21:55;;;;;;;2.35;1.75;;;23.00;99.90;;;;;;4945251;29;20390;-86
2023/07/21 11:24:23;;;;;;;3.03;1.42;;;22.80;99.90;;;;;;4944381;29;20508;-86
2023/07/21 11:26:49;;;;;;;3.00;1.65;;;22.90;99.90;;;;;;4956224;28;20849;-85
2023/07/21 11:29:16;;;;;;;2.63;1.90;;;23.80;99.90;;;;;;4949877;29;20419;-86
2023/07/21 11:31:42;;;;;;;1.85;1.48;;;23.50;99.90;;;;;;4963857;29;20510;-88
2023/07/21 11:34:25;;;;;;;2.00;1.80;;;23.60;99.90;;;;;;4949392;29;20444;-87
2023/07/21 11:36:58;;;;;;;3.80;1.70;;;24.20;99.90;;;;;;4957238;29;20428;-87
2023/07/21 11:39:27;;;;;;;2.93;1.60;;;23.80;99.90;;;;;;4933988;28;20489;-87
2023/07/21 11:41:54;;;;;;;2.53;1.70;;;23.40;99.90;;;;;;4933430;29;20925;-88
2023/07/21 11:44:21;;;;;;;2.33;1.50;;;23.50;99.90;;;;;;4931703;29;20416;-86
2023/07/21 11:46:53;;;;;;;4.03;1.98;;;23.20;99.90;;;;;;4931871;29;20410;-86
2023/07/21 11:49:19;;;;;;;2.42;1.70;;;23.00;99.90;;;;;;4950942;29;20432;-84
2023/07/21 11:51:46;;;;;;;2.13;1.90;;;23.30;99.90;;;;;;4935976;29;20446;-87
2023/07/21 11:54:23;;;;;;;3.03;1.80;;;23.40;99.90;;;;;;4935414;29;20416;-85
2023/07/21 11:56:50;;;;;;;3.03;1.50;;;23.30;99.90;;;;;;4943181;29;20402;-88
2023/07/21 11:59:17;;;;;;;2.20;2.00;;;23.30;99.90;;;;;;4950675;28;20423;-90
2023/07/21 12:01:43;;;;;;;2.60;1.90;;;24.20;99.90;;;;;;4964068;28;20399;-87
2023/07/21 12:04:09;;;;;;;2.40;1.70;;;23.50;99.90;;;;;;4963188;28;20420;-88
2023/07/21 12:06:36;;;;;;;5.30;1.80;;;23.60;99.90;;;;;;4951901;28;20398;-87
2023/07/21 12:09:05;;;;;;;3.17;2.10;;;23.30;99.90;;;;;;4938933;29;20463;-89
2023/07/21 12:12:03;;;;;;;3.30;1.80;;;23.50;99.90;;;;;;4949989;28;20470;-91
2023/07/21 12:15:19;;;;;;;2.10;1.70;;;23.20;99.90;;;;;;4921023;29;20410;-90
2023/07/21 12:17:47;;;;;;;2.58;1.83;;;24.20;99.90;;;;;;4943264;29;20398;-82
2023/07/21 12:20:17;;;;;;;4.10;1.60;;;24.30;99.90;;;;;;4941963;29;20429;-88
2023/07/21 12:22:49;;;;;;;2.63;1.60;;;25.80;99.90;;;;;;4939373;29;20409;-89
2023/07/21 12:25:14;;;;;;;2.20;2.00;;;24.30;99.90;;;;;;4941327;29;20401;-83
2023/07/21 12:27:53;;;;;;;2.20;1.55;;;22.30;99.90;;;;;;4956008;28;20402;-86
2023/07/21 12:30:38;;;;;;;3.40;1.90;;;23.10;99.90;;;;;;4930134;29;20399;-91
2023/07/21 12:33:12;;;;;;;2.05;1.60;;;23.10;99.90;;;;;;4944348;29;20419;-91
2023/07/21 12:35:43;;;;;;;2.90;2.27;;;23.00;99.90;;;;;;4936663;29;20890;-87
2023/07/21 12:38:20;;;;;;;2.10;1.90;;;23.50;99.90;;;;;;4941274;29;20429;-91
2023/07/21 12:40:49;;;;;;;1.50;1.40;;;24.70;99.90;;;;;;4925237;29;20391;-83
2023/07/21 12:43:18;;;;;;;1.92;1.48;;;23.70;99.90;;;;;;4938998;29;20403;-88
2023/07/21 12:45:44;;;;;;;2.20;1.50;;;23.10;99.90;;;;;;4925201;29;20402;-92
2023/07/21 12:48:09;;;;;;;2.70;1.60;;;22.70;99.90;;;;;;4941199;29;20406;-92
2023/07/21 12:50:35;;;;;;;2.88;1.60;;;23.10;99.90;;;;;;4948902;28;20456;-91
2023/07/21 12:53:00;;;;;;;2.67;1.47;;;24.40;99.90;;;;;;4967009;23;20458;-80